createdAt,value
2018-11-13T00:05:28.819Z,101745.92
2018-11-13T00:11:35.528Z,101751.36
2018-11-13T00:19:06.386Z,101748.72
2018-11-13T00:24:53.570Z,101762.48
2018-11-13T00:27:35.939Z,101761.45
2018-11-13T00:43:37.296Z,101734.75
2018-11-13T00:46:21.468Z,101733.04
2018-11-13T00:48:59.518Z,101736.30
2018-11-13T00:51:33.632Z,101746.70
2018-11-13T00:54:12.031Z,101752.30
2018-11-13T00:56:41.449Z,101754.63
2018-11-13T00:59:11.462Z,101759.16
2018-11-13T01:01:40.620Z,101753.54
2018-11-13T01:04:11.360Z,101749.47
2018-11-13T01:06:40.575Z,101751.48
2018-11-13T01:09:12.120Z,101749.88
2018-11-13T01:11:42.900Z,101753.73
2018-11-13T01:14:12.508Z,101755.69
2018-11-13T01:16:41.818Z,101761.00
2018-11-13T01:19:12.163Z,101767.15
2018-11-13T01:21:41.625Z,101767.15
2018-11-13T01:24:10.926Z,101766.38
2018-11-13T01:29:19.614Z,101768.52
2018-11-13T01:31:48.857Z,101775.29
2018-11-13T01:34:21.310Z,101781.16
2018-11-13T01:36:50.629Z,101785.39
2018-11-13T01:39:22.936Z,101791.20
2018-11-13T01:41:52.297Z,101786.88
2018-11-13T01:44:21.462Z,101784.48
2018-11-13T01:46:51.355Z,101772.59
2018-11-13T01:49:24.582Z,101770.88
2018-11-13T01:51:54.313Z,101777.95
2018-11-13T01:54:23.471Z,101779.67
2018-11-13T01:56:52.614Z,101772.49
2018-11-13T01:59:23.679Z,101766.56
2018-11-13T02:01:52.858Z,101749.99
2018-11-13T02:04:22.051Z,101747.22
2018-11-13T02:06:51.516Z,101735.23
2018-11-13T02:09:20.727Z,101738.13
2018-11-13T02:12:12.093Z,101737.59
2018-11-13T02:14:42.423Z,101744.28
2018-11-13T02:17:12.789Z,101747.29
2018-11-13T02:19:43.240Z,101765.56
2018-11-13T02:22:12.387Z,101777.92
2018-11-13T02:24:41.577Z,101778.45
2018-11-13T02:27:10.782Z,101770.38
2018-11-13T02:29:39.927Z,101773.14
2018-11-13T02:32:09.125Z,101786.88
2018-11-13T02:34:38.276Z,101782.78
2018-11-13T02:37:07.459Z,101772.34
2018-11-13T02:39:36.689Z,101766.39
2018-11-13T02:42:27.371Z,101751.38
2018-11-13T02:44:56.567Z,101760.36
2018-11-13T02:47:28.028Z,101778.23
2018-11-13T02:50:27.439Z,101781.63
2018-11-13T02:52:57.352Z,101771.87
2018-11-13T02:55:27.799Z,101773.98
2018-11-13T02:57:58.078Z,101770.93
2018-11-13T03:00:27.398Z,101768.13
2018-11-13T03:02:59.920Z,101768.02
2018-11-13T03:05:32.964Z,101766.61
2018-11-13T03:19:05.999Z,101751.40
2018-11-13T03:21:48.363Z,101748.17
2018-11-13T03:24:17.651Z,101754.05
2018-11-13T03:26:50.066Z,101758.81
2018-11-13T03:29:19.215Z,101765.98
2018-11-13T03:31:48.500Z,101758.87
2018-11-13T03:34:19.682Z,101741.73
2018-11-13T03:39:59.955Z,101774.00
2018-11-13T03:57:13.964Z,101761.40
2018-11-13T03:59:43.921Z,101768.56
2018-11-13T04:02:13.169Z,101768.78
2018-11-13T04:04:43.421Z,101774.79
2018-11-13T04:07:12.747Z,101785.95
2018-11-13T04:09:41.969Z,101785.25
2018-11-13T04:12:32.839Z,101775.50
2018-11-13T04:19:20.223Z,101778.58
2018-11-13T04:22:05.042Z,101787.50
2018-11-13T04:24:34.692Z,101779.41
2018-11-13T04:27:03.934Z,101785.45
2018-11-13T04:29:38.764Z,101784.79
2018-11-13T04:32:08.171Z,101782.90
2018-11-13T04:40:57.967Z,101780.03
2018-11-13T05:06:21.383Z,101806.08
2018-11-13T05:08:50.600Z,101803.15
2018-11-13T05:11:20.072Z,101796.09
2018-11-13T05:13:50.176Z,101802.65
2018-11-13T05:16:22.209Z,101803.48
2018-11-13T05:18:59.046Z,101808.99
2018-11-13T05:21:28.420Z,101811.81
2018-11-13T05:23:57.666Z,101813.37
2018-11-13T05:26:28.918Z,101810.41
2018-11-13T05:46:04.094Z,101825.20
2018-11-13T05:48:33.362Z,101824.74
2018-11-13T05:51:04.438Z,101814.31
2018-11-13T05:53:36.886Z,101823.95
2018-11-13T05:56:07.543Z,101823.09
2018-11-13T05:58:36.999Z,101828.23
2018-11-13T06:01:06.170Z,101815.03
2018-11-13T06:03:36.561Z,101816.55
2018-11-13T06:06:06.204Z,101823.35
2018-11-13T06:08:36.131Z,101810.77
2018-11-13T06:11:05.414Z,101824.57
2018-11-13T06:13:38.027Z,101825.23
2018-11-13T06:16:08.190Z,101827.25
2018-11-13T06:18:37.315Z,101834.84
2018-11-13T06:21:06.452Z,101848.98
2018-11-13T06:23:36.432Z,101840.78
2018-11-13T06:26:05.587Z,101831.52
2018-11-13T06:28:36.942Z,101841.72
2018-11-13T06:31:06.029Z,101844.95
2018-11-13T06:33:35.806Z,101849.08
2018-11-13T06:36:05.188Z,101854.34
2018-11-13T06:38:34.438Z,101866.90
2018-11-13T06:41:03.519Z,101859.75
2018-11-13T06:43:37.540Z,101870.16
2018-11-13T06:46:07.083Z,101875.70
2018-11-13T06:48:36.215Z,101872.61
2018-11-13T06:51:05.275Z,101873.11
2018-11-13T06:54:49.509Z,101878.48
2018-11-13T06:57:18.677Z,101877.77
2018-11-13T06:59:47.771Z,101881.80
2018-11-13T07:02:17.407Z,101887.91
2018-11-13T07:04:47.502Z,101879.09
2018-11-13T07:07:16.563Z,101883.99
2018-11-13T07:09:45.624Z,101880.63
2018-11-13T07:12:14.725Z,101884.27
2018-11-13T07:14:44.000Z,101889.27
2018-11-13T07:17:13.705Z,101898.02
2018-11-13T07:19:42.971Z,101887.31
2018-11-13T07:22:12.292Z,101897.19
2018-11-13T07:24:41.668Z,101901.28
2018-11-13T07:27:11.913Z,101905.38
2018-11-13T07:29:41.093Z,101900.11
2018-11-13T07:32:10.229Z,101896.32
2018-11-13T07:34:39.306Z,101897.43
2018-11-13T07:37:08.399Z,101907.27
2018-11-13T07:39:38.134Z,101907.74
2018-11-13T07:42:07.208Z,101910.36
2018-11-13T07:44:37.532Z,101909.02
2018-11-13T07:47:06.703Z,101908.81
2018-11-13T07:49:35.738Z,101916.30
2018-11-13T07:52:13.350Z,101924.84
2018-11-13T07:54:43.418Z,101926.11
2018-11-13T07:57:12.573Z,101933.00
2018-11-13T07:59:41.666Z,101942.11
2018-11-13T08:02:10.748Z,101940.55
2018-11-13T08:04:40.425Z,101941.09
2018-11-13T08:07:11.137Z,101944.08
2018-11-13T08:09:44.527Z,101933.52
2018-11-13T08:12:13.708Z,101950.56
2018-11-13T08:14:43.197Z,101952.41
2018-11-13T08:17:12.436Z,101959.49
2018-11-13T08:19:56.559Z,101970.31
2018-11-13T08:22:25.695Z,101971.32
2018-11-13T08:24:57.155Z,101972.83
2018-11-13T08:27:26.247Z,101970.97
2018-11-13T08:29:55.321Z,101972.34
2018-11-13T08:32:27.644Z,101978.80
2018-11-13T08:34:59.597Z,101971.23
2018-11-13T08:37:29.697Z,101968.82
2018-11-13T08:40:01.984Z,101948.44
2018-11-13T08:42:31.035Z,101960.77
2018-11-13T08:45:03.919Z,101967.46
2018-11-13T08:47:33.390Z,101970.22
2018-11-13T08:50:02.463Z,101966.95
2018-11-13T08:52:32.211Z,101976.77
2018-11-13T08:55:09.833Z,101976.91
2018-11-13T08:57:38.979Z,101982.05
2018-11-13T09:00:11.221Z,101974.28
2018-11-13T09:02:41.582Z,101973.33
2018-11-13T09:05:11.845Z,101977.17
2018-11-13T09:07:45.675Z,101973.88
2018-11-13T09:10:24.353Z,101989.53
2018-11-13T09:12:54.430Z,101998.47
2018-11-13T09:15:30.830Z,102000.09
2018-11-13T09:18:00.726Z,102010.08
2018-11-13T09:20:29.843Z,102015.25
2018-11-13T09:22:59.584Z,102027.02
2018-11-13T09:25:32.460Z,102024.97
2018-11-13T09:28:03.350Z,102029.30
2018-11-13T09:30:32.898Z,102030.48
2018-11-13T09:33:01.940Z,102045.34
2018-11-13T09:35:34.629Z,102049.30
2018-11-13T09:38:05.404Z,102048.54
2018-11-13T09:40:34.507Z,102048.19
2018-11-13T09:43:04.886Z,102049.48
2018-11-13T09:45:36.141Z,102055.94
2018-11-13T09:48:06.580Z,102058.56
2018-11-13T09:50:36.866Z,102067.67
2018-11-13T09:53:10.062Z,102056.85
2018-11-13T09:55:55.839Z,102057.70
2018-11-13T09:58:26.302Z,102053.56
2018-11-13T10:00:55.950Z,102068.77
2018-11-13T10:03:32.432Z,102068.67
2018-11-13T10:06:02.257Z,102072.27
2018-11-13T10:08:31.344Z,102074.97
2018-11-13T10:11:00.961Z,102077.84
2018-11-13T10:13:33.540Z,102081.70
2018-11-13T10:16:05.982Z,102075.95
2018-11-13T10:18:36.854Z,102091.60
2018-11-13T10:21:18.178Z,102086.75
2018-11-13T10:23:47.844Z,102081.83
2018-11-13T10:26:19.606Z,102085.53
2018-11-13T10:31:25.957Z,102080.72
2018-11-13T10:33:56.382Z,102093.42
2018-11-13T10:36:30.618Z,102097.14
2018-11-13T10:38:59.691Z,102096.22
2018-11-13T10:41:38.926Z,102095.66
2018-11-13T10:44:12.357Z,102106.05
2018-11-13T10:46:42.209Z,102108.31
2018-11-13T10:49:11.372Z,102114.87
2018-11-13T10:51:40.410Z,102098.77
2018-11-13T10:54:11.428Z,102110.05
2018-11-13T10:56:40.482Z,102116.39
2018-11-13T10:59:09.565Z,102117.86
2018-11-13T11:01:44.736Z,102123.77
2018-11-13T11:04:25.719Z,102112.16
2018-11-13T11:07:00.332Z,102123.92
2018-11-13T11:09:34.020Z,102127.12
2018-11-13T11:12:04.154Z,102124.77
2018-11-13T11:14:33.222Z,102123.89
2018-11-13T11:17:04.644Z,102141.87
2018-11-13T11:19:34.714Z,102133.92
2018-11-13T11:22:06.120Z,102148.52
2018-11-13T11:24:35.269Z,102144.67
2018-11-13T11:27:12.767Z,102149.56
2018-11-13T11:29:41.925Z,102152.61
2018-11-13T11:32:11.044Z,102157.28
2018-11-13T11:34:45.259Z,102156.49
2018-11-13T11:37:16.278Z,102160.72
2018-11-13T11:39:50.355Z,102163.03
2018-11-13T11:42:21.094Z,102168.22
2018-11-13T11:44:50.270Z,102155.30
2018-11-13T11:47:26.109Z,102163.37
2018-11-13T11:49:55.466Z,102161.65
2018-11-13T11:52:24.601Z,102168.62
2018-11-13T11:55:03.774Z,102157.03
2018-11-13T11:57:34.654Z,102168.21
2018-11-13T12:00:06.367Z,102171.28
2018-11-13T12:02:37.267Z,102180.81
2018-11-13T12:05:10.004Z,102185.83
2018-11-13T12:07:45.943Z,102186.77
2018-11-13T12:10:20.094Z,102203.00
2018-11-13T12:12:50.481Z,102199.59
2018-11-13T12:15:20.423Z,102199.07
2018-11-13T12:17:50.724Z,102201.19
2018-11-13T12:20:21.096Z,102199.20
2018-11-13T12:22:53.892Z,102204.85
2018-11-13T12:25:24.615Z,102206.55
2018-11-13T12:27:55.443Z,102210.20
2018-11-13T12:30:28.215Z,102215.44
2018-11-13T12:32:58.026Z,102220.20
2018-11-13T12:35:28.016Z,102228.42
2018-11-13T12:37:58.078Z,102240.03
2018-11-13T12:40:27.219Z,102237.46
2018-11-13T12:42:56.298Z,102237.42
2018-11-13T12:45:25.964Z,102236.58
2018-11-13T12:52:19.058Z,102245.96
2018-11-13T12:54:48.562Z,102242.44
2018-11-13T12:57:19.869Z,102244.04
2018-11-13T12:59:49.175Z,102247.08
2018-11-13T13:02:24.960Z,102242.11
2018-11-13T13:04:54.143Z,102237.19
2018-11-13T13:07:29.037Z,102253.45
2018-11-13T13:09:59.453Z,102252.25
2018-11-13T13:12:28.601Z,102256.19
2018-11-13T13:15:01.913Z,102245.05
2018-11-13T13:17:33.612Z,102250.03
2018-11-13T13:20:05.569Z,102257.66
2018-11-13T13:22:34.710Z,102259.39
2018-11-13T13:25:04.192Z,102258.27
2018-11-13T13:27:33.419Z,102267.69
2018-11-13T13:30:03.392Z,102269.89
2018-11-13T13:32:32.481Z,102281.88
2018-11-13T13:36:06.030Z,102280.56
2018-11-13T13:38:45.269Z,102264.05
2018-11-13T13:44:31.454Z,102280.88
2018-11-13T13:47:00.708Z,102286.50
2018-11-13T13:49:29.866Z,102279.28
2018-11-13T13:51:59.328Z,102289.84
2018-11-13T13:54:29.490Z,102290.03
2018-11-13T13:56:59.104Z,102299.84
2018-11-13T13:59:37.473Z,102294.45
2018-11-13T14:02:08.049Z,102300.48
2018-11-13T14:04:37.375Z,102305.16
2018-11-13T14:07:06.669Z,102310.58
2018-11-13T14:09:40.278Z,102312.48
2018-11-13T14:12:09.421Z,102321.58
2018-11-13T14:14:38.654Z,102318.49
2018-11-13T14:17:14.005Z,102324.87
2018-11-13T14:19:47.742Z,102328.02
2018-11-13T14:22:19.423Z,102331.34
2018-11-13T14:24:55.885Z,102334.47
2018-11-13T14:27:33.071Z,102344.17
2018-11-13T14:30:19.022Z,102344.52
2018-11-13T14:32:50.389Z,102351.52
2018-11-13T14:35:23.052Z,102350.36
2018-11-13T14:37:59.256Z,102357.83
2018-11-13T14:40:38.422Z,102363.51
2018-11-13T14:43:12.310Z,102362.44
2018-11-13T14:45:45.348Z,102372.11
2018-11-13T14:48:14.659Z,102377.61
2018-11-13T14:50:50.480Z,102376.84
2018-11-13T14:53:19.718Z,102377.68
2018-11-13T14:55:54.015Z,102381.64
2018-11-13T14:58:26.146Z,102383.36
2018-11-13T15:03:37.260Z,102399.17
2018-11-13T15:06:13.329Z,102396.25
2018-11-13T15:08:44.890Z,102408.12
2018-11-13T15:12:19.011Z,102402.58
2018-11-13T15:14:49.557Z,102415.64
2018-11-13T15:17:20.927Z,102424.02
2018-11-13T15:19:57.342Z,102423.36
2018-11-13T15:22:29.825Z,102426.23
2018-11-13T15:25:00.059Z,102429.41
2018-11-13T15:27:52.491Z,102434.98
2018-11-13T15:35:13.298Z,102451.03
2018-11-13T15:37:43.807Z,102449.20
2018-11-13T15:40:17.233Z,102451.80
2018-11-13T15:42:47.647Z,102458.88
2018-11-13T15:45:22.148Z,102464.78
2018-11-13T15:47:52.246Z,102462.66
2018-11-13T15:54:35.356Z,102473.64
2018-11-13T16:03:31.367Z,102477.75
2018-11-13T16:30:30.675Z,102527.05
2018-11-13T16:32:59.903Z,102525.92
2018-11-13T16:35:29.642Z,102534.11
2018-11-13T16:37:59.663Z,102532.47
2018-11-13T16:40:30.176Z,102539.08
2018-11-13T16:42:59.414Z,102535.81
2018-11-13T16:45:29.603Z,102530.39
2018-11-13T16:47:59.332Z,102537.10
2018-11-13T16:50:35.482Z,102534.11
2018-11-13T16:53:05.022Z,102544.69
2018-11-13T16:55:39.392Z,102543.70
2018-11-13T16:58:11.057Z,102546.37
2018-11-13T17:00:41.107Z,102542.55
2018-11-13T17:03:10.176Z,102546.89
2018-11-13T17:05:39.359Z,102547.31
2018-11-13T17:08:08.329Z,102553.76
2018-11-13T17:10:40.198Z,102554.14
2018-11-13T17:13:09.255Z,102554.84
2018-11-13T17:15:38.483Z,102557.39
2018-11-13T17:18:07.810Z,102554.75
2018-11-13T17:20:36.980Z,102563.85
2018-11-13T17:23:06.031Z,102563.77
2018-11-13T17:25:36.572Z,102567.21
2018-11-13T17:28:06.246Z,102571.82
2018-11-13T17:30:36.132Z,102574.41
2018-11-13T17:33:07.653Z,102574.77
2018-11-13T17:35:36.766Z,102576.56
2018-11-13T17:38:06.971Z,102588.06
2018-11-13T17:40:36.998Z,102586.14
2018-11-13T17:43:07.590Z,102593.66
2018-11-13T17:45:39.184Z,102599.10
2018-11-13T17:48:11.267Z,102599.05
2018-11-13T17:50:42.481Z,102598.83
2018-11-13T17:53:14.177Z,102601.00
2018-11-13T17:55:43.279Z,102603.42
2018-11-13T17:58:14.263Z,102605.11
2018-11-13T18:00:46.960Z,102613.57
2018-11-13T18:03:25.647Z,102610.89
2018-11-13T18:05:55.386Z,102613.16
2018-11-13T18:08:25.328Z,102618.13
2018-11-13T18:10:58.975Z,102617.58
2018-11-13T18:13:39.759Z,102615.81
2018-11-13T18:16:11.412Z,102618.93
2018-11-13T18:18:41.476Z,102621.34
2018-11-13T18:21:15.875Z,102621.59
2018-11-13T18:23:46.271Z,102626.17
2018-11-13T18:26:20.071Z,102623.59
2018-11-13T18:28:50.911Z,102627.07
2018-11-13T18:31:21.682Z,102626.80
2018-11-13T18:33:52.837Z,102633.27
2018-11-13T18:36:22.933Z,102635.12
2018-11-13T18:38:53.574Z,102633.05
2018-11-13T18:41:26.751Z,102636.67
2018-11-13T18:43:56.114Z,102633.77
2018-11-13T18:46:25.326Z,102641.99
2018-11-13T18:48:54.466Z,102644.13
2018-11-13T18:51:25.685Z,102642.21
2018-11-13T18:53:54.915Z,102642.46
2018-11-13T18:56:24.041Z,102640.75
2018-11-13T18:58:53.222Z,102637.56
2018-11-13T19:01:23.035Z,102643.04
2018-11-13T19:03:52.217Z,102647.30
2018-11-13T19:06:21.422Z,102648.71
2018-11-13T19:08:50.537Z,102649.63
2018-11-13T19:11:19.749Z,102648.66
2018-11-13T19:13:51.881Z,102654.62
2018-11-13T19:16:21.461Z,102655.77
2018-11-13T19:18:50.652Z,102653.22
2018-11-13T19:21:23.194Z,102656.91
2018-11-13T19:23:53.532Z,102657.66
2018-11-13T19:26:22.629Z,102661.11
2018-11-13T19:28:51.718Z,102658.19
2018-11-13T19:31:22.535Z,102660.39
2018-11-13T19:33:53.315Z,102662.62
2018-11-13T19:36:22.556Z,102661.42
2018-11-13T19:38:51.712Z,102672.56
2018-11-13T19:41:20.764Z,102668.75
2018-11-13T19:43:51.499Z,102674.27
2018-11-13T19:46:20.548Z,102674.33
2018-11-13T19:48:49.672Z,102676.92
2018-11-13T19:51:19.020Z,102687.19
2018-11-13T19:53:48.220Z,102685.17
2018-11-13T19:56:18.266Z,102691.20
2018-11-13T19:58:48.343Z,102694.14
2018-11-13T20:01:17.420Z,102688.77
2018-11-13T20:03:46.838Z,102689.76
2018-11-13T20:06:16.555Z,102697.89
2018-11-13T20:08:45.668Z,102694.06
2018-11-13T20:11:14.753Z,102699.73
2018-11-13T20:13:43.801Z,102697.81
2018-11-13T20:16:12.953Z,102709.84
2018-11-13T20:18:42.081Z,102709.42
2018-11-13T20:21:11.175Z,102711.25
2018-11-13T20:23:40.283Z,102726.17
2018-11-13T20:26:09.535Z,102721.63
2018-11-13T20:28:39.854Z,102724.22
2018-11-13T20:31:09.039Z,102730.98
2018-11-13T20:33:44.984Z,102729.80
2018-11-13T20:36:15.256Z,102724.36
2018-11-13T20:38:44.354Z,102731.58
2018-11-13T20:41:13.590Z,102727.92
2018-11-13T20:43:42.683Z,102731.87
2018-11-13T20:46:11.788Z,102728.95
2018-11-13T20:48:41.338Z,102733.23
2018-11-13T20:51:10.470Z,102738.75
2018-11-13T20:53:46.882Z,102742.23
2018-11-13T20:56:18.017Z,102739.30
2018-11-13T20:58:47.131Z,102743.66
2018-11-13T21:01:16.249Z,102742.77
2018-11-13T21:03:45.419Z,102737.72
2018-11-13T21:06:14.650Z,102741.16
2018-11-13T21:08:43.796Z,102741.20
2018-11-13T21:11:12.938Z,102748.87
2018-11-13T21:13:41.980Z,102743.81
2018-11-13T21:16:11.128Z,102757.79
2018-11-13T21:18:42.145Z,102753.13
2018-11-13T21:21:11.221Z,102752.73
2018-11-13T21:23:40.324Z,102751.53
2018-11-13T21:26:09.318Z,102754.44
2018-11-13T21:28:38.425Z,102756.13
2018-11-13T21:31:07.692Z,102756.59
2018-11-13T21:33:36.746Z,102762.50
2018-11-13T21:36:05.822Z,102755.78
2018-11-13T21:38:34.880Z,102758.37
2018-11-13T21:41:04.001Z,102748.98
2018-11-13T21:43:33.144Z,102751.15
2018-11-13T21:46:02.182Z,102754.58
2018-11-13T21:48:31.272Z,102759.67
2018-11-13T21:51:00.561Z,102763.53
2018-11-13T21:53:29.593Z,102764.80
2018-11-13T21:55:58.681Z,102769.02
2018-11-13T21:58:27.734Z,102770.36
2018-11-13T22:00:57.227Z,102771.59
2018-11-13T22:03:26.402Z,102775.41
2018-11-13T22:05:55.470Z,102772.06
2018-11-13T22:08:24.532Z,102781.85
2018-11-13T22:10:53.548Z,102786.59
2018-11-13T22:13:22.612Z,102781.11
2018-11-13T22:15:51.657Z,102795.11
2018-11-13T22:18:20.702Z,102801.02
2018-11-13T22:20:51.243Z,102797.20
2018-11-13T22:23:20.325Z,102800.28
2018-11-13T22:25:49.351Z,102802.82
2018-11-13T22:28:18.945Z,102792.17
2018-11-13T22:30:49.591Z,102792.18
2018-11-13T22:33:18.591Z,102798.22
2018-11-13T22:35:47.666Z,102801.16
2018-11-13T22:38:16.848Z,102800.80
2018-11-13T22:40:46.063Z,102806.28
2018-11-13T22:43:16.087Z,102797.87
2018-11-13T22:45:45.140Z,102805.98
2018-11-13T22:48:14.187Z,102808.05
2018-11-13T22:50:43.299Z,102801.69
2018-11-13T22:53:12.301Z,102797.90
2018-11-13T22:55:41.382Z,102799.63
2018-11-13T22:58:10.430Z,102794.11
2018-11-13T23:00:41.724Z,102793.23
2018-11-13T23:03:12.922Z,102795.00
2018-11-13T23:05:42.508Z,102795.00
2018-11-13T23:08:13.966Z,102795.84
2018-11-13T23:10:43.059Z,102794.17
2018-11-13T23:13:13.069Z,102795.52
2018-11-13T23:15:42.358Z,102795.09
2018-11-13T23:18:11.392Z,102797.25
2018-11-13T23:20:40.480Z,102795.97
2018-11-13T23:23:09.567Z,102790.03
2018-11-13T23:25:38.636Z,102785.37
2018-11-13T23:28:07.765Z,102788.37
2018-11-13T23:30:36.765Z,102786.70
2018-11-13T23:33:06.611Z,102783.34
2018-11-13T23:35:35.277Z,102792.67
2018-11-13T23:38:04.346Z,102787.19
2018-11-13T23:40:33.453Z,102786.83
2018-11-13T23:43:02.483Z,102784.73
2018-11-13T23:45:31.529Z,102783.47
2018-11-13T23:48:00.852Z,102778.83
2018-11-13T23:50:29.641Z,102782.66
2018-11-13T23:52:58.694Z,102786.50
2018-11-13T23:55:27.805Z,102787.38
2018-11-13T23:57:56.858Z,102792.46
